Tom Frazier — WDD4376 — position and weather

sailwx.info

Track history (hours):
 
Tides and Currents Weather Stations Pressure Air Temp Water Temp Dewpoint Dewpoint Depression Visibility Wind Speed Wind Dir Waves Ship Positions

Tom Frazier

Owner: American Commercial Lines LLC, Jeffersonville, IN. More information available from US FCC via Universal Licensing System and Coast Guard Vessel Documentation Center.

Last reported at 2017-Jun-18 18:30 UTC. Time now 2017-Jun-24 05:25 UTC.
Position N 40°39' W 091°11'.

Length 48 m; draft 2.9 m.

Type: Towing. MMSI: 367143910.

Date/timePositionNaut miles runAvg speedWind from/ knotsBaromVisibWave heightAir tempDewpointWater temp
2017-Jun-18 18:30N 40°39' W 091°11'5 5.3
2017-Jun-18 17:38N 40°42' W 091°07'1 5.5
2017-Jun-18 17:29N 40°42' W 091°07'3 5.2
2017-Jun-18 16:56N 40°45' W 091°06'3 6.0
2017-Jun-18 16:30N 40°48' W 091°06'3 5.4
2017-Jun-18 16:00N 40°50' W 091°04'3 5.6
2017-Jun-18 15:30N 40°53' W 091°02'1 1.1
2017-Jun-18 15:00N 40°53' W 091°01'0 0.1
2017-Jun-18 14:00N 40°53' W 091°01'0 0.6
2017-Jun-18 13:30N 40°53' W 091°01'2 4.5
2017-Jun-18 13:00N 40°55' W 090°59'2 4.7
2017-Jun-18 12:30N 40°57' W 090°57'2 4.9
2017-Jun-18 12:00N 40°59' W 090°57'3 5.5
2017-Jun-18 11:30N 41°02' W 090°57'3 5.8
2017-Jun-18 11:00N 41°05' W 090°57'3 5.9
2017-Jun-18 10:30N 41°08' W 090°58'3 6.2
2017-Jun-18 10:00N 41°10' W 091°01'5 1.2
2017-Jun-18 06:20N 41°13' W 091°05'2 5.4
2017-Jun-18 05:59N 41°14' W 091°07'  
Track history (hours):
 
Tides and Currents Weather Stations Pressure Air Temp Water Temp Dewpoint Dewpoint Depression Visibility Wind Speed Wind Dir Waves Ship Positions

Tom Frazier

Owner: American Commercial Lines LLC, Jeffersonville, IN. More information available from US FCC via Universal Licensing System and Coast Guard Vessel Documentation Center.

Last reported at 2017-Jun-18 18:30 UTC. Time now 2017-Jun-24 05:25 UTC.
Position N 40°39' W 091°11'.

Length 48 m; draft 2.9 m.

Type: Towing. MMSI: 367143910.

Date/timePositionNaut miles runAvg speedWind from/ knotsBaromVisibWave heightAir tempDewpointWater temp
2017-Jun-18 18:30N 40°39' W 091°11'5 5.3
2017-Jun-18 17:38N 40°42' W 091°07'1 5.5
2017-Jun-18 17:29N 40°42' W 091°07'3 5.2
2017-Jun-18 16:56N 40°45' W 091°06'3 6.0
2017-Jun-18 16:30N 40°48' W 091°06'3 5.4
2017-Jun-18 16:00N 40°50' W 091°04'3 5.6
2017-Jun-18 15:30N 40°53' W 091°02'1 1.1
2017-Jun-18 15:00N 40°53' W 091°01'0 0.1
2017-Jun-18 14:00N 40°53' W 091°01'0 0.6
2017-Jun-18 13:30N 40°53' W 091°01'2 4.5
2017-Jun-18 13:00N 40°55' W 090°59'2 4.7
2017-Jun-18 12:30N 40°57' W 090°57'2 4.9
2017-Jun-18 12:00N 40°59' W 090°57'3 5.5
2017-Jun-18 11:30N 41°02' W 090°57'3 5.8
2017-Jun-18 11:00N 41°05' W 090°57'3 5.9
2017-Jun-18 10:30N 41°08' W 090°58'3 6.2
2017-Jun-18 10:00N 41°10' W 091°01'5 1.2
2017-Jun-18 06:20N 41°13' W 091°05'2 5.4
2017-Jun-18 05:59N 41°14' W 091°07'  

Dump ship's entire track history